Time;durP1;ratioP1;P1;durP2;ratioP2;P2;SDS_P1;SDS_P2;PMS_P1;PMS_P2;Temp;Humidity;BMP_temperature;BMP_pressure;BME280_temperature;BME280_humidity;BME280_pressure;Samples;Min_cycle;Max_cycle;Signal;HPM_P1;HPM_P2
2022/12/21 00:02:06;;;;;;;5.07;1.83;;;7.90;99.90;;;;;;5091141;28;20159;-80
2022/12/21 00:04:31;;;;;;;2.10;1.75;;;7.80;99.90;;;;;;5091775;28;20051;-80
2022/12/21 00:06:57;;;;;;;2.97;2.03;;;7.70;99.90;;;;;;5091493;28;20493;-80
2022/12/21 00:09:24;;;;;;;5.38;3.10;;;7.50;99.90;;;;;;5091767;28;20112;-80
2022/12/21 00:11:50;;;;;;;1.52;1.42;;;7.40;99.90;;;;;;5091175;28;20833;-80
2022/12/21 00:14:15;;;;;;;1.95;1.65;;;7.40;99.90;;;;;;5088244;28;20572;-79
2022/12/21 00:16:42;;;;;;;2.75;2.42;;;7.40;99.90;;;;;;5087832;28;20132;-79
2022/12/21 00:19:10;;;;;;;0.77;0.77;;;7.50;99.90;;;;;;5087983;28;20044;-80
2022/12/21 00:21:36;;;;;;;1.75;1.48;;;7.50;99.90;;;;;;5088775;28;20059;-79
2022/12/21 00:24:02;;;;;;;2.30;1.98;;;7.50;99.90;;;;;;5087703;28;20058;-80
2022/12/21 00:26:32;;;;;;;0.98;0.77;;;7.50;99.90;;;;;;5088310;28;20106;-78
2022/12/21 00:28:59;;;;;;;5.80;2.85;;;7.50;99.90;;;;;;5088026;28;20051;-80
2022/12/21 00:31:27;;;;;;;1.55;1.20;;;7.50;99.90;;;;;;5088790;28;20040;-80
2022/12/21 00:33:54;;;;;;;9.73;2.17;;;7.50;99.90;;;;;;5088015;28;20048;-80
2022/12/21 00:36:21;;;;;;;4.57;3.53;;;7.40;99.90;;;;;;5087494;28;20059;-79
2022/12/21 00:38:47;;;;;;;1.85;1.75;;;7.50;99.90;;;;;;5087770;28;20040;-80
2022/12/21 00:41:16;;;;;;;2.08;1.90;;;7.50;99.90;;;;;;5086947;28;20036;-80
2022/12/21 00:43:42;;;;;;;1.90;1.75;;;7.50;99.90;;;;;;5087568;28;20518;-80
2022/12/21 00:46:18;;;;;;;2.22;1.83;;;7.50;99.90;;;;;;5088956;28;20056;-80
2022/12/21 00:48:43;;;;;;;0.77;0.77;;;7.60;99.90;;;;;;5087819;28;20044;-79
2022/12/21 00:51:12;;;;;;;2.10;1.45;;;7.60;99.90;;;;;;5087884;28;20285;-80
2022/12/21 00:53:38;;;;;;;1.98;1.77;;;7.50;99.90;;;;;;5088193;28;20044;-79
2022/12/21 00:56:06;;;;;;;3.20;2.35;;;7.50;99.90;;;;;;5088117;28;20512;-79
2022/12/21 00:58:33;;;;;;;1.73;1.63;;;7.50;99.90;;;;;;5087525;28;20463;-79
2022/12/21 01:01:04;;;;;;;2.22;2.03;;;7.50;99.90;;;;;;5087866;28;20497;-79
2022/12/21 01:03:30;;;;;;;3.65;1.55;;;7.50;99.90;;;;;;5088070;28;20052;-79
2022/12/21 01:05:55;;;;;;;9.13;1.27;;;7.50;99.90;;;;;;5087602;28;20050;-80
2022/12/21 01:08:23;;;;;;;1.17;1.08;;;7.50;99.90;;;;;;5087844;28;20040;-79
2022/12/21 01:10:49;;;;;;;0.60;0.60;;;7.50;99.90;;;;;;5088380;28;20079;-79
2022/12/21 01:13:16;;;;;;;1.48;1.38;;;7.40;99.90;;;;;;5088695;28;20062;-80
2022/12/21 01:15:42;;;;;;;1.90;1.75;;;7.40;99.90;;;;;;5086978;28;20052;-80
2022/12/21 01:18:10;;;;;;;1.17;0.63;;;7.40;99.90;;;;;;5087605;28;20566;-80
2022/12/21 01:20:45;;;;;;;3.60;1.10;;;7.40;99.90;;;;;;5088544;28;20155;-80
2022/12/21 01:23:11;;;;;;;3.33;2.45;;;7.40;99.90;;;;;;5069841;28;20159;-80
2022/12/21 01:25:36;;;;;;;1.70;0.70;;;7.40;99.90;;;;;;5085668;28;20847;-80
2022/12/21 01:28:03;;;;;;;2.55;2.35;;;7.30;99.90;;;;;;5086720;28;20047;-80
2022/12/21 01:30:28;;;;;;;3.83;2.30;;;7.30;99.90;;;;;;5087593;28;20048;-80
2022/12/21 01:32:54;;;;;;;0.73;0.73;;;7.30;99.90;;;;;;5087047;28;20497;-80
2022/12/21 01:35:20;;;;;;;2.45;1.00;;;7.30;99.90;;;;;;5087110;28;20048;-80
2022/12/21 01:37:46;;;;;;;1.55;1.45;;;7.20;99.90;;;;;;5087657;28;20125;-79
2022/12/21 01:40:12;;;;;;;1.20;1.08;;;7.20;99.90;;;;;;5087315;28;20519;-79
2022/12/21 01:42:38;;;;;;;1.67;1.20;;;7.20;99.90;;;;;;5087562;28;20520;-79
2022/12/21 01:45:16;;;;;;;1.30;1.20;;;7.20;99.90;;;;;;5088561;28;20075;-80
2022/12/21 01:47:48;;;;;;;2.00;1.85;;;7.20;99.90;;;;;;5087725;28;20093;-80
2022/12/21 01:50:48;;;;;;;1.48;1.38;;;7.60;99.90;;;;;;5088365;28;20508;-80
2022/12/21 01:53:26;;;;;;;2.17;1.98;;;7.20;99.90;;;;;;5077401;28;20056;-80
2022/12/21 01:55:55;;;;;;;0.77;0.75;;;7.80;99.90;;;;;;5087341;28;20894;-79
2022/12/21 01:58:25;;;;;;;0.52;0.52;;;7.10;99.90;;;;;;5086580;28;20067;-79
2022/12/21 02:00:52;;;;;;;1.55;0.82;;;7.00;99.90;;;;;;5087838;28;20036;-80
2022/12/21 02:03:21;;;;;;;0.55;0.55;;;7.10;99.90;;;;;;5086520;28;20115;-80
2022/12/21 02:06:10;;;;;;;1.10;0.95;;;7.10;99.90;;;;;;5069503;28;20054;-79
2022/12/21 02:08:37;;;;;;;0.75;0.50;;;7.00;99.90;;;;;;5086808;28;20083;-80
2022/12/21 02:11:04;;;;;;;0.93;0.82;;;7.00;99.90;;;;;;5090906;28;20450;-80
2022/12/21 02:13:30;;;;;;;0.60;0.43;;;7.00;99.90;;;;;;5090966;28;20154;-80
2022/12/21 02:15:58;;;;;;;1.48;1.38;;;6.90;99.90;;;;;;5090175;28;20071;-79
2022/12/21 02:18:49;;;;;;;0.22;0.22;;;6.90;99.90;;;;;;5091092;28;20500;-80
2022/12/21 02:21:22;;;;;;;3.08;1.70;;;6.80;99.90;;;;;;5090743;28;20056;-80
2022/12/21 02:24:05;;;;;;;0.10;0.10;;;6.90;99.90;;;;;;5091124;28;20052;-80
2022/12/21 02:26:40;;;;;;;0.85;0.85;;;6.80;99.90;;;;;;5090956;28;20086;-80
2022/12/21 02:29:37;;;;;;;1.40;1.27;;;6.80;99.90;;;;;;5090412;28;20048;-79
2022/12/21 02:32:09;;;;;;;0.60;0.60;;;6.80;99.90;;;;;;5089741;28;20210;-80
2022/12/21 02:34:43;;;;;;;0.40;0.38;;;6.80;99.90;;;;;;5090573;28;20101;-80
2022/12/21 02:37:39;;;;;;;0.80;0.77;;;6.80;99.90;;;;;;5090590;28;20059;-80
2022/12/21 02:40:15;;;;;;;1.83;1.45;;;6.80;99.90;;;;;;5090771;28;20520;-79
2022/12/21 02:45:41;;;;;;;0.40;0.40;;;6.80;99.90;;;;;;5090969;28;19969;-80
2022/12/21 02:48:19;;;;;;;0.55;0.55;;;6.80;99.90;;;;;;5090254;28;20039;-80
2022/12/21 02:50:51;;;;;;;1.45;0.95;;;6.80;99.90;;;;;;5089881;28;20113;-80
2022/12/21 02:53:28;;;;;;;0.73;0.73;;;6.90;99.90;;;;;;5089278;28;20052;-80
2022/12/21 02:55:53;;;;;;;0.00;0.00;;;6.90;99.90;;;;;;5089691;28;20123;-80
2022/12/21 02:58:22;;;;;;;0.10;0.10;;;6.90;99.90;;;;;;5088985;28;20151;-80
2022/12/21 03:01:10;;;;;;;0.93;0.88;;;6.90;99.90;;;;;;5088820;28;20435;-79
2022/12/21 03:04:14;;;;;;;0.90;0.88;;;6.90;99.90;;;;;;5088732;28;20058;-80
2022/12/21 03:06:47;;;;;;;0.10;0.10;;;6.90;99.90;;;;;;5088168;28;20052;-80
2022/12/21 03:09:42;;;;;;;1.60;1.23;;;6.90;99.90;;;;;;5088463;28;20044;-80
2022/12/21 03:12:17;;;;;;;0.88;0.88;;;6.90;99.90;;;;;;5081687;28;20059;-79
2022/12/21 03:14:51;;;;;;;6.80;0.70;;;6.90;99.90;;;;;;5089819;28;20127;-80
2022/12/21 03:17:33;;;;;;;0.30;0.30;;;6.90;99.90;;;;;;5090010;28;20062;-79
2022/12/21 03:20:17;;;;;;;0.40;0.40;;;6.90;99.90;;;;;;5089748;28;20405;-80
2022/12/21 03:22:56;;;;;;;0.70;0.65;;;6.90;99.90;;;;;;5090745;28;20044;-80
2022/12/21 03:25:33;;;;;;;3.40;2.08;;;6.90;99.90;;;;;;5090376;28;20063;-80
2022/12/21 03:28:04;;;;;;;1.17;0.88;;;6.90;99.90;;;;;;5090868;28;20872;-80
2022/12/21 03:30:37;;;;;;;2.45;1.95;;;6.90;99.90;;;;;;5091294;28;20048;-79
2022/12/21 03:33:06;;;;;;;5.68;1.33;;;6.90;99.90;;;;;;5091442;28;20079;-80
2022/12/21 03:35:46;;;;;;;0.88;0.88;;;6.90;99.90;;;;;;5091124;28;20037;-80
2022/12/21 03:38:37;;;;;;;1.05;0.95;;;6.90;99.90;;;;;;5089794;28;20043;-79
2022/12/21 03:41:07;;;;;;;1.60;1.50;;;6.90;99.90;;;;;;5088335;28;20509;-80
2022/12/21 03:43:36;;;;;;;0.10;0.10;;;6.90;99.90;;;;;;5089502;28;20052;-80
2022/12/21 03:46:09;;;;;;;1.58;1.08;;;6.90;99.90;;;;;;5090058;28;20447;-80
2022/12/21 03:48:42;;;;;;;0.40;0.40;;;6.90;99.90;;;;;;5089750;28;20048;-80
2022/12/21 03:51:35;;;;;;;0.45;0.45;;;6.90;99.90;;;;;;5088832;28;20447;-80
2022/12/21 03:54:21;;;;;;;1.42;1.33;;;6.80;99.90;;;;;;5069819;28;20142;-80
2022/12/21 03:56:48;;;;;;;0.82;0.47;;;6.80;99.90;;;;;;5069498;28;20421;-80
2022/12/21 03:59:16;;;;;;;0.40;0.40;;;6.80;99.90;;;;;;5069662;28;20049;-80
2022/12/21 04:02:08;;;;;;;1.73;0.90;;;6.80;99.90;;;;;;5069575;28;20469;-80
2022/12/21 04:04:42;;;;;;;0.52;0.52;;;6.80;99.90;;;;;;5064048;28;20050;-80
2022/12/21 04:07:09;;;;;;;1.42;1.27;;;6.80;99.90;;;;;;5069604;28;20054;-80
2022/12/21 04:09:37;;;;;;;2.30;0.90;;;6.70;99.90;;;;;;5080826;28;20040;-80
2022/12/21 04:14:48;;;;;;;1.58;1.38;;;6.70;99.90;;;;;;5089246;28;20052;-80
2022/12/21 04:17:13;;;;;;;0.55;0.52;;;6.70;99.90;;;;;;5089687;28;20442;-80
2022/12/21 04:19:57;;;;;;;2.00;0.85;;;6.60;99.90;;;;;;5089613;28;20100;-80
2022/12/21 04:28:09;;;;;;;1.38;1.20;;;6.50;99.90;;;;;;5088291;28;20048;-80
2022/12/21 04:30:40;;;;;;;1.25;0.80;;;6.50;99.90;;;;;;5088153;28;20075;-80
2022/12/21 04:33:08;;;;;;;0.50;0.50;;;6.40;99.90;;;;;;5087712;28;20115;-80
2022/12/21 04:35:35;;;;;;;0.20;0.20;;;6.40;99.90;;;;;;5088313;28;20125;-79
2022/12/21 04:38:02;;;;;;;0.77;0.77;;;6.40;99.90;;;;;;5088430;28;20066;-80
2022/12/21 04:40:28;;;;;;;0.32;0.32;;;6.40;99.90;;;;;;5089974;28;20036;-80
2022/12/21 04:42:53;;;;;;;1.15;1.05;;;6.40;99.90;;;;;;5090814;28;20048;-80
2022/12/21 04:45:19;;;;;;;0.22;0.22;;;6.40;99.90;;;;;;5090862;28;20050;-79
2022/12/21 04:47:45;;;;;;;0.47;0.47;;;6.40;99.90;;;;;;5090502;28;20071;-80
2022/12/21 04:50:10;;;;;;;1.48;0.55;;;6.40;99.90;;;;;;5089561;28;20133;-80
2022/12/21 04:52:36;;;;;;;0.38;0.38;;;6.40;99.90;;;;;;5089200;28;20066;-80
2022/12/21 04:55:02;;;;;;;1.95;1.65;;;6.40;99.90;;;;;;5088891;28;20123;-80
2022/12/21 04:57:29;;;;;;;1.75;0.70;;;6.40;99.90;;;;;;5086713;28;20086;-80
2022/12/21 04:59:55;;;;;;;1.05;0.57;;;6.40;99.90;;;;;;5087984;28;20057;-81
2022/12/21 05:02:21;;;;;;;1.75;1.45;;;6.40;99.90;;;;;;5085823;28;20422;-80
2022/12/21 05:04:47;;;;;;;1.10;0.75;;;6.40;99.90;;;;;;5086610;28;20136;-80
2022/12/21 05:07:12;;;;;;;2.97;0.40;;;6.40;99.90;;;;;;5067244;28;20119;-80
2022/12/21 05:09:38;;;;;;;3.35;1.55;;;6.40;99.90;;;;;;5085696;28;20044;-80
2022/12/21 05:12:04;;;;;;;0.68;0.47;;;6.30;99.90;;;;;;5067139;28;20036;-79
2022/12/21 05:14:29;;;;;;;0.82;0.63;;;6.30;99.90;;;;;;5086133;28;20094;-79
2022/12/21 05:16:55;;;;;;;0.35;0.35;;;6.30;99.90;;;;;;5085498;28;20062;-79
2022/12/21 05:19:20;;;;;;;1.30;1.20;;;6.30;99.90;;;;;;5085310;28;20044;-79
2022/12/21 05:21:46;;;;;;;1.10;0.82;;;6.30;99.90;;;;;;5080555;28;20039;-79
2022/12/21 05:24:12;;;;;;;0.65;0.60;;;6.30;99.90;;;;;;5075344;28;20463;-79
2022/12/21 05:26:37;;;;;;;1.83;0.63;;;6.20;99.90;;;;;;5077771;28;20044;-80
2022/12/21 05:29:03;;;;;;;0.20;0.20;;;6.30;99.90;;;;;;5077486;28;20091;-80
2022/12/21 05:31:30;;;;;;;3.60;1.38;;;6.30;99.90;;;;;;5079677;28;20443;-80
2022/12/21 05:33:55;;;;;;;3.30;0.95;;;6.30;99.90;;;;;;5078672;28;20440;-80
2022/12/21 05:36:22;;;;;;;0.00;0.00;;;6.30;99.90;;;;;;5076682;28;20052;-80
2022/12/21 05:38:47;;;;;;;1.13;1.02;;;6.30;99.90;;;;;;5078910;28;20416;-80
2022/12/21 05:41:15;;;;;;;0.40;0.40;;;6.30;99.90;;;;;;5082114;28;20044;-80
2022/12/21 05:43:41;;;;;;;1.10;1.00;;;6.30;99.90;;;;;;5086383;28;20047;-80
2022/12/21 05:46:08;;;;;;;0.85;0.82;;;6.30;99.90;;;;;;5088128;28;20040;-80
2022/12/21 05:48:35;;;;;;;1.05;0.98;;;6.40;99.90;;;;;;5087589;28;20511;-80
2022/12/21 05:51:13;;;;;;;3.88;0.80;;;6.30;99.90;;;;;;5087398;28;20134;-80
2022/12/21 05:53:44;;;;;;;0.40;0.38;;;6.30;99.90;;;;;;5087399;28;20048;-80
2022/12/21 05:56:11;;;;;;;5.15;1.83;;;6.30;99.90;;;;;;5088046;28;20439;-80
2022/12/21 05:58:36;;;;;;;0.22;0.22;;;6.30;99.90;;;;;;5087588;28;20700;-80
2022/12/21 06:01:05;;;;;;;1.58;1.13;;;6.30;99.90;;;;;;5084460;28;20036;-80
2022/12/21 06:03:31;;;;;;;1.13;1.05;;;6.30;99.90;;;;;;5074348;28;20048;-80
2022/12/21 06:06:11;;;;;;;1.13;1.02;;;6.30;99.90;;;;;;5073976;28;20076;-80
2022/12/21 06:08:37;;;;;;;1.52;0.95;;;6.20;99.90;;;;;;5073116;28;20040;-80
2022/12/21 06:11:08;;;;;;;0.93;0.90;;;6.30;99.90;;;;;;5079988;28;20044;-80
2022/12/21 06:13:34;;;;;;;0.75;0.70;;;6.30;99.90;;;;;;5085435;28;20509;-80
2022/12/21 06:16:09;;;;;;;0.55;0.55;;;6.30;99.90;;;;;;5086449;28;20035;-80
2022/12/21 06:18:35;;;;;;;0.22;0.22;;;6.30;99.90;;;;;;5086840;28;20921;-80
2022/12/21 06:21:01;;;;;;;2.72;1.23;;;6.30;99.90;;;;;;5068800;28;20052;-80
2022/12/21 06:23:27;;;;;;;1.33;0.95;;;6.30;99.90;;;;;;5084775;28;20036;-80
2022/12/21 06:25:57;;;;;;;0.77;0.77;;;6.30;99.90;;;;;;5085499;28;20101;-80
2022/12/21 06:28:24;;;;;;;4.47;1.38;;;6.30;99.90;;;;;;5081535;28;20040;-80
2022/12/21 06:30:51;;;;;;;0.32;0.32;;;6.30;99.90;;;;;;5074773;28;20121;-80
2022/12/21 06:33:19;;;;;;;0.10;0.10;;;6.30;99.90;;;;;;5071670;28;20044;-80
2022/12/21 06:35:45;;;;;;;0.00;0.00;;;6.30;99.90;;;;;;5086082;28;20036;-80
2022/12/21 06:38:11;;;;;;;1.70;1.60;;;6.30;99.90;;;;;;5086992;28;20044;-80
2022/12/21 06:40:37;;;;;;;4.53;1.17;;;6.30;99.90;;;;;;5087099;28;20044;-80
2022/12/21 06:43:02;;;;;;;1.60;0.85;;;6.30;99.90;;;;;;5087428;28;20043;-79
2022/12/21 06:45:28;;;;;;;1.52;1.02;;;6.30;99.90;;;;;;5087216;28;20054;-79
2022/12/21 06:47:54;;;;;;;6.45;3.83;;;6.40;99.90;;;;;;5086635;28;20125;-80
2022/12/21 06:50:20;;;;;;;0.68;0.68;;;6.40;99.90;;;;;;5087102;28;20048;-80
2022/12/21 06:52:49;;;;;;;1.38;1.27;;;6.40;99.90;;;;;;5087124;28;20048;-80
2022/12/21 06:55:15;;;;;;;6.95;2.08;;;6.40;99.90;;;;;;5087455;28;20083;-80
2022/12/21 06:57:41;;;;;;;0.65;0.65;;;6.40;99.90;;;;;;5090312;28;20048;-80
2022/12/21 07:00:09;;;;;;;5.63;1.23;;;6.40;99.90;;;;;;5090327;28;20050;-80
2022/12/21 07:02:35;;;;;;;1.23;1.13;;;6.40;99.90;;;;;;5090447;28;20048;-80
2022/12/21 07:05:01;;;;;;;1.30;1.20;;;6.40;99.90;;;;;;5081665;28;20048;-79
2022/12/21 07:07:27;;;;;;;1.00;0.65;;;6.40;99.90;;;;;;5090868;28;20044;-79
2022/12/21 07:09:52;;;;;;;1.85;1.63;;;6.40;99.90;;;;;;5090703;28;21067;-79
2022/12/21 07:12:18;;;;;;;1.30;0.93;;;6.40;99.90;;;;;;5091029;28;20056;-79
2022/12/21 07:14:43;;;;;;;2.97;1.65;;;6.40;99.90;;;;;;5081113;28;20480;-79
2022/12/21 07:17:10;;;;;;;0.50;0.50;;;6.40;99.90;;;;;;5081844;28;20042;-79
2022/12/21 07:19:35;;;;;;;0.30;0.30;;;6.30;99.90;;;;;;5077804;28;20078;-79
2022/12/21 07:22:01;;;;;;;2.65;2.08;;;6.40;99.90;;;;;;5078108;28;20037;-79
2022/12/21 07:24:27;;;;;;;0.35;0.35;;;6.40;99.90;;;;;;5070096;28;20147;-79
2022/12/21 07:26:52;;;;;;;0.28;0.28;;;6.50;99.90;;;;;;5069508;28;20048;-79
2022/12/21 07:29:18;;;;;;;1.90;1.73;;;6.50;99.90;;;;;;5070555;28;20102;-80
2022/12/21 07:31:44;;;;;;;1.35;1.25;;;6.60;99.90;;;;;;5069103;28;20044;-79
2022/12/21 07:34:09;;;;;;;2.70;0.90;;;6.60;99.90;;;;;;5052835;28;20511;-79
2022/12/21 07:36:35;;;;;;;0.45;0.45;;;6.50;99.90;;;;;;5070340;28;20124;-79
2022/12/21 07:39:01;;;;;;;3.55;2.60;;;6.60;99.90;;;;;;5069918;28;20127;-79
2022/12/21 07:41:26;;;;;;;1.65;0.80;;;6.60;99.90;;;;;;5069883;28;20086;-79
2022/12/21 07:43:52;;;;;;;3.28;1.73;;;6.60;99.90;;;;;;5069978;28;20041;-79
2022/12/21 07:46:18;;;;;;;2.22;2.03;;;6.60;99.90;;;;;;5078401;28;20055;-79
2022/12/21 07:48:44;;;;;;;1.75;1.45;;;6.60;99.90;;;;;;5089446;28;20397;-79
2022/12/21 07:51:09;;;;;;;1.15;1.05;;;6.60;99.90;;;;;;5089723;28;20056;-79
2022/12/21 07:53:35;;;;;;;2.42;1.70;;;6.70;99.90;;;;;;5090058;28;20048;-79
2022/12/21 07:56:27;;;;;;;1.75;1.65;;;6.70;99.90;;;;;;5090166;28;20046;-79
2022/12/21 07:58:52;;;;;;;1.67;1.58;;;6.80;99.90;;;;;;5087042;28;20489;-79
2022/12/21 08:01:19;;;;;;;2.58;2.03;;;6.80;99.90;;;;;;5089482;28;20113;-79
2022/12/21 08:03:45;;;;;;;9.25;2.83;;;6.80;99.90;;;;;;5087245;28;20100;-79
2022/12/21 08:06:11;;;;;;;5.88;1.23;;;6.80;99.90;;;;;;5086234;28;20044;-79
2022/12/21 08:08:38;;;;;;;0.60;0.60;;;6.80;99.90;;;;;;5087265;28;20051;-79
2022/12/21 08:11:05;;;;;;;0.70;0.70;;;6.90;99.90;;;;;;5086986;28;20509;-79
2022/12/21 08:13:31;;;;;;;4.82;4.15;;;6.90;99.90;;;;;;5087769;28;20568;-79
2022/12/21 08:16:05;;;;;;;7.15;2.70;;;6.90;99.90;;;;;;5088059;28;20077;-79
2022/12/21 08:18:32;;;;;;;3.75;3.13;;;7.00;99.90;;;;;;5087946;28;20040;-79
2022/12/21 08:20:57;;;;;;;5.28;2.47;;;7.00;99.90;;;;;;5087598;28;20113;-80
2022/12/21 08:23:24;;;;;;;6.90;5.40;;;7.00;99.90;;;;;;5087028;28;20039;-80
2022/12/21 08:25:49;;;;;;;6.38;3.45;;;7.00;99.90;;;;;;5065643;28;20053;-80
2022/12/21 08:28:15;;;;;;;0.73;0.73;;;7.00;99.90;;;;;;5065841;28;20064;-80
2022/12/21 08:30:41;;;;;;;2.20;1.88;;;7.00;99.90;;;;;;5065827;28;20050;-79
2022/12/21 08:33:07;;;;;;;8.45;3.85;;;7.00;99.90;;;;;;5065514;28;20044;-80
2022/12/21 08:35:32;;;;;;;2.30;2.10;;;7.00;99.90;;;;;;5066127;28;20052;-80
2022/12/21 08:37:58;;;;;;;1.63;1.25;;;7.00;99.90;;;;;;5065153;28;20585;-80
2022/12/21 08:40:24;;;;;;;2.47;1.70;;;7.00;99.90;;;;;;5066000;28;20316;-80
2022/12/21 08:42:49;;;;;;;1.23;1.13;;;7.00;99.90;;;;;;5065354;28;20072;-80
2022/12/21 08:45:16;;;;;;;3.38;1.15;;;7.10;99.90;;;;;;5066191;28;20040;-80
2022/12/21 08:47:42;;;;;;;4.25;1.65;;;7.10;99.90;;;;;;5064766;28;20052;-80
2022/12/21 08:50:08;;;;;;;1.23;1.00;;;7.10;99.90;;;;;;5064950;28;20037;-80
2022/12/21 08:52:33;;;;;;;1.95;1.85;;;7.10;99.90;;;;;;5064394;28;20638;-80
2022/12/21 08:54:59;;;;;;;2.15;1.92;;;7.10;99.90;;;;;;5065917;28;20080;-80
2022/12/21 08:57:24;;;;;;;1.52;1.42;;;7.10;99.90;;;;;;5066738;28;20047;-80
2022/12/21 08:59:51;;;;;;;1.38;1.25;;;7.10;99.90;;;;;;5067078;28;20051;-79
2022/12/21 09:02:16;;;;;;;0.90;0.90;;;7.20;99.90;;;;;;5067074;28;20094;-79
2022/12/21 09:04:42;;;;;;;2.70;1.23;;;7.30;99.90;;;;;;5066257;28;20508;-79
2022/12/21 09:07:08;;;;;;;1.98;1.73;;;7.40;99.90;;;;;;5066522;28;20128;-79
2022/12/21 09:09:34;;;;;;;4.32;2.50;;;7.40;99.90;;;;;;5066503;28;20412;-80
2022/12/21 09:12:00;;;;;;;2.50;1.55;;;7.40;99.90;;;;;;5066130;28;20108;-80
2022/12/21 09:14:28;;;;;;;9.82;3.08;;;7.40;99.90;;;;;;5065607;28;20414;-79
2022/12/21 09:16:54;;;;;;;0.43;0.43;;;7.40;99.90;;;;;;5066536;28;20045;-79
2022/12/21 09:19:20;;;;;;;3.38;3.08;;;7.40;99.90;;;;;;5066027;28;20101;-79
2022/12/21 09:21:45;;;;;;;1.05;1.05;;;7.50;99.90;;;;;;5048926;28;20055;-79
2022/12/21 09:24:11;;;;;;;2.82;1.84;;;7.60;99.90;;;;;;5036597;28;1051596;-79
2022/12/21 09:26:37;;;;;;;4.78;0.68;;;7.60;99.90;;;;;;5087498;28;20099;-80
2022/12/21 09:29:02;;;;;;;2.20;2.00;;;7.70;99.90;;;;;;5089832;28;20052;-79
2022/12/21 09:31:28;;;;;;;1.85;1.70;;;7.70;99.90;;;;;;5089408;28;20048;-79
2022/12/21 09:39:04;;;;;;;2.78;2.40;;;7.90;99.90;;;;;;4535080;22;20059;-78
2022/12/21 09:41:57;;;;;;;3.38;1.55;;;7.90;99.90;;;;;;5068071;28;20044;-78
2022/12/21 09:44:45;;;;;;;2.92;2.10;;;7.90;99.90;;;;;;5073928;28;20658;-78
2022/12/21 09:47:20;;;;;;;5.22;3.58;;;7.90;99.90;;;;;;5046031;28;20485;-78
2022/12/21 09:49:55;;;;;;;4.70;2.20;;;7.90;99.90;;;;;;5079423;28;21033;-78
2022/12/21 09:52:33;;;;;;;5.30;3.28;;;8.10;99.90;;;;;;5080832;28;20646;-78
2022/12/21 09:55:27;;;;;;;1.48;1.38;;;7.90;99.90;;;;;;5051035;28;20525;-79
2022/12/21 09:57:54;;;;;;;3.05;0.90;;;7.90;99.90;;;;;;5074729;28;20065;-78
2022/12/21 10:00:21;;;;;;;1.92;1.20;;;7.90;99.90;;;;;;5079367;28;20133;-79
2022/12/21 10:02:56;;;;;;;2.47;1.63;;;7.80;99.90;;;;;;5079356;28;20566;-78
2022/12/21 10:05:50;;;;;;;2.17;1.98;;;7.90;99.90;;;;;;5079789;28;20048;-78
2022/12/21 10:08:59;;;;;;;2.38;2.08;;;7.90;99.90;;;;;;5074785;28;20147;-78
2022/12/21 10:11:39;;;;;;;2.28;1.88;;;8.00;99.90;;;;;;5057931;28;20064;-78
2022/12/21 10:14:24;;;;;;;1.95;1.77;;;8.00;99.90;;;;;;5078637;28;20048;-79
2022/12/21 10:16:56;;;;;;;15.65;4.25;;;8.10;99.90;;;;;;5060815;28;20138;-78
2022/12/21 10:19:34;;;;;;;2.28;2.10;;;8.20;99.90;;;;;;5054733;28;20049;-78
2022/12/21 10:22:24;;;;;;;2.83;2.53;;;8.10;99.90;;;;;;5047995;28;20044;-78
2022/12/21 10:24:54;;;;;;;4.68;4.00;;;8.10;99.90;;;;;;5049281;28;20045;-78
2022/12/21 10:28:02;;;;;;;11.40;4.65;;;8.00;99.90;;;;;;5051163;28;20036;-78
2022/12/21 10:30:29;;;;;;;;;;;7.90;99.90;;;;;;5014617;28;20498;-78
2022/12/21 10:32:57;;;;;;;5.03;4.20;;;7.90;99.90;;;;;;5054661;28;20305;-78
2022/12/21 10:35:38;;;;;;;30.90;1.98;;;8.00;99.90;;;;;;5049652;28;20072;-78
2022/12/21 10:38:18;;;;;;;9.57;2.70;;;8.90;99.90;;;;;;5049718;28;20777;-79
2022/12/21 10:40:51;;;;;;;2.78;2.53;;;8.10;99.90;;;;;;5050758;28;20041;-78
2022/12/21 10:43:17;;;;;;;1.60;1.50;;;8.10;99.90;;;;;;5054845;28;20055;-79
2022/12/21 10:45:43;;;;;;;2.28;2.05;;;8.00;99.90;;;;;;5048991;28;20041;-78
2022/12/21 10:48:10;;;;;;;2.33;1.73;;;8.10;99.90;;;;;;5026595;28;20467;-78
2022/12/21 10:50:44;;;;;;;1.75;1.65;;;7.90;99.90;;;;;;5010531;28;20045;-78
2022/12/21 10:53:27;;;;;;;4.38;2.85;;;8.00;99.90;;;;;;5029298;28;20084;-78
2022/12/21 10:56:00;;;;;;;3.42;2.88;;;8.00;99.90;;;;;;5041376;28;20072;-78
2022/12/21 10:58:28;;;;;;;0.93;0.93;;;8.00;99.90;;;;;;5046980;28;20056;-78
2022/12/21 11:01:03;;;;;;;2.28;1.95;;;8.10;99.90;;;;;;5029559;28;20045;-78
2022/12/21 11:03:34;;;;;;;1.63;1.52;;;8.10;99.90;;;;;;5046992;28;20049;-78
2022/12/21 11:06:15;;;;;;;1.73;1.63;;;8.10;99.90;;;;;;5048051;28;20049;-78
2022/12/21 11:08:49;;;;;;;1.17;1.10;;;8.10;99.90;;;;;;5028548;28;20049;-78
2022/12/21 11:11:35;;;;;;;6.85;2.80;;;8.00;99.90;;;;;;5063463;28;20069;-80
2022/12/21 11:14:19;;;;;;;2.03;1.67;;;7.80;99.90;;;;;;5066055;28;20080;-80
2022/12/21 11:16:45;;;;;;;1.75;1.63;;;7.70;99.90;;;;;;5066090;28;20099;-79
2022/12/21 11:19:17;;;;;;;1.48;1.38;;;7.60;99.90;;;;;;5065677;28;20041;-79
2022/12/21 11:21:50;;;;;;;2.75;1.80;;;7.70;99.90;;;;;;5046188;28;20110;-78
2022/12/21 11:24:32;;;;;;;4.45;2.38;;;7.60;99.90;;;;;;5024063;28;20041;-78
2022/12/21 11:27:20;;;;;;;3.75;1.77;;;7.60;99.90;;;;;;5040873;28;20502;-78
2022/12/21 11:30:09;;;;;;;3.28;1.42;;;7.60;99.90;;;;;;5042509;28;20052;-78
2022/12/21 11:32:42;;;;;;;1.25;0.95;;;7.60;99.90;;;;;;5024166;28;20056;-78
2022/12/21 11:35:28;;;;;;;1.45;0.60;;;7.60;99.90;;;;;;5042538;28;20049;-79
2022/12/21 11:38:08;;;;;;;5.32;3.90;;;7.60;99.90;;;;;;5042082;28;20060;-79
2022/12/21 11:40:34;;;;;;;1.60;1.50;;;7.70;99.90;;;;;;5042399;28;20063;-78
2022/12/21 11:42:59;;;;;;;1.40;1.23;;;7.80;99.90;;;;;;5041792;28;20486;-78
2022/12/21 11:45:25;;;;;;;2.58;1.80;;;7.70;99.90;;;;;;5041632;28;20053;-78
2022/12/21 11:48:12;;;;;;;0.82;0.82;;;7.70;99.90;;;;;;5041869;28;20128;-78
2022/12/21 11:50:49;;;;;;;12.10;2.10;;;7.80;99.90;;;;;;5041779;28;20049;-78
2022/12/21 11:53:39;;;;;;;2.92;1.70;;;7.80;99.90;;;;;;5041502;28;20055;-78
2022/12/21 11:56:20;;;;;;;3.90;2.05;;;7.80;99.90;;;;;;5041798;28;20057;-78
2022/12/21 11:59:04;;;;;;;6.72;2.15;;;7.80;99.90;;;;;;5042400;28;20174;-78
2022/12/21 12:01:37;;;;;;;2.15;0.80;;;7.80;99.90;;;;;;5043604;28;20053;-78
2022/12/21 12:04:38;;;;;;;2.35;2.15;;;7.80;99.90;;;;;;5043596;28;20076;-78
2022/12/21 12:07:21;;;;;;;7.53;2.22;;;7.80;99.90;;;;;;4990040;28;20563;-79
2022/12/21 12:09:56;;;;;;;2.03;1.85;;;7.80;99.90;;;;;;5043808;28;20060;-78
2022/12/21 12:12:49;;;;;;;1.98;1.77;;;7.90;99.90;;;;;;5044151;28;20052;-79
2022/12/21 12:15:46;;;;;;;4.70;3.60;;;8.00;99.90;;;;;;5043837;28;20099;-79
2022/12/21 12:18:33;;;;;;;4.67;3.40;;;8.00;99.90;;;;;;5043445;28;20053;-78
2022/12/21 12:21:12;;;;;;;5.57;1.73;;;8.20;99.90;;;;;;5042424;28;20299;-78
2022/12/21 12:24:10;;;;;;;2.13;1.55;;;8.30;99.90;;;;;;5037764;28;20350;-78
2022/12/21 12:26:59;;;;;;;3.85;2.17;;;8.40;99.90;;;;;;5051253;28;20105;-79
2022/12/21 12:29:35;;;;;;;8.65;2.60;;;8.40;99.90;;;;;;5048785;28;20044;-79
2022/12/21 12:32:18;;;;;;;3.13;1.95;;;8.50;99.90;;;;;;5041780;28;20063;-79
2022/12/21 12:35:07;;;;;;;3.88;3.45;;;8.50;99.90;;;;;;5043093;28;20045;-79
2022/12/21 12:37:52;;;;;;;2.40;1.95;;;8.50;99.90;;;;;;5038501;28;20659;-79
2022/12/21 12:40:37;;;;;;;5.38;2.63;;;8.60;99.90;;;;;;5039144;28;20501;-79
2022/12/21 12:43:23;;;;;;;2.53;2.00;;;8.60;99.90;;;;;;5039505;28;20051;-78
2022/12/21 12:46:08;;;;;;;;;;;8.60;99.90;;;;;;5025226;28;20057;-80
2022/12/21 12:48:52;;;;;;;1.65;1.55;;;8.60;99.90;;;;;;5044765;28;20326;-79
2022/12/21 12:51:36;;;;;;;5.75;2.20;;;8.60;99.90;;;;;;5046252;28;20234;-79
2022/12/21 12:54:10;;;;;;;11.82;4.60;;;8.60;99.90;;;;;;5045817;28;20580;-79
2022/12/21 12:57:11;;;;;;;3.80;2.38;;;8.70;99.90;;;;;;5044145;28;20053;-80
2022/12/21 13:00:03;;;;;;;2.38;2.15;;;8.50;99.90;;;;;;5046253;28;20088;-79
2022/12/21 13:02:41;;;;;;;7.03;4.07;;;8.60;99.90;;;;;;5045897;28;20481;-80
2022/12/21 13:05:35;;;;;;;4.13;2.83;;;8.50;99.90;;;;;;5051829;28;20044;-79
2022/12/21 13:08:07;;;;;;;5.22;3.30;;;8.50;99.90;;;;;;5044905;28;20407;-79
2022/12/21 13:10:54;;;;;;;1.95;1.65;;;8.60;99.90;;;;;;5047259;28;20076;-79
2022/12/21 13:13:23;;;;;;;;;;;8.70;99.90;;;;;;5028564;28;20044;-79
2022/12/21 13:15:56;;;;;;;1.88;1.73;;;8.70;99.90;;;;;;5047299;28;19948;-80
2022/12/21 13:18:28;;;;;;;6.30;2.47;;;8.70;99.90;;;;;;5046374;28;20123;-80
2022/12/21 13:20:57;;;;;;;7.22;3.13;;;8.70;99.90;;;;;;5053375;28;20056;-79
2022/12/21 13:23:33;;;;;;;3.92;1.67;;;8.60;99.90;;;;;;5047359;28;20400;-79
2022/12/21 13:26:08;;;;;;;2.53;2.05;;;8.50;99.90;;;;;;5042743;28;20049;-79
2022/12/21 13:28:58;;;;;;;1.13;0.55;;;8.70;99.90;;;;;;5041664;28;20049;-78
2022/12/21 13:31:30;;;;;;;3.22;2.13;;;8.60;99.90;;;;;;5044378;28;20053;-79
2022/12/21 13:34:04;;;;;;;13.95;1.65;;;8.50;99.90;;;;;;5052849;28;20044;-79
2022/12/21 13:36:37;;;;;;;1.85;1.23;;;8.60;99.90;;;;;;5040309;28;20048;-79
2022/12/21 13:39:22;;;;;;;0.38;0.28;;;8.50;99.90;;;;;;5038744;28;20053;-79
2022/12/21 13:41:54;;;;;;;4.72;2.35;;;8.50;99.90;;;;;;5022806;28;20457;-79